Nimbus Weather Services

Informe meteorológico para Carrasco, Uruguay. El informe se hizo hace un momento, a las 21:00 UTC. El viento soplaba a una velocidad de 5.7 m/s (12.7 millas por hora) del este-sureste (120°). La temperatura era 14 °C (57 °F), con un punto de rocío de 14 °C (57 °F). La presión atmosférica era 1015 hPa (29.97 inHg). Había una humedad relativa del 100.0%. Cielo nublado a partir de los 61 metros (200 pies) En aquel momento la visibilidad global era 300 metros (984 pies). La visibilidad era 400 metros (1312 pies) sin tendencia marcada para la pista 24 y 400 metros (1312 pies) con tendencia a bajar para la pista 19. Actualmente niebla.

La clave METAR es: SUMU 182100Z 12011KT 0300 R24/0400N R19/0400D FG OVC002 14/14 Q1015 TEMPO BR

Consulta realizada el Sábado 18 de Septiembre de 2021 18:03. Tiempo usado para generar esta pagina:7,158 ms.